sensor_id;sensor_type;location;lat;lon;timestamp;P1;durP1;ratioP1;P2;durP2;ratioP2
28431;SDS011;15664;51.302;7.744;2022-12-10T00:01:32;41.70;;;13.57;;
28431;SDS011;15664;51.302;7.744;2022-12-10T00:03:59;49.15;;;15.40;;
28431;SDS011;15664;51.302;7.744;2022-12-10T00:06:25;52.72;;;16.20;;
28431;SDS011;15664;51.302;7.744;2022-12-10T00:08:53;47.00;;;14.47;;
28431;SDS011;15664;51.302;7.744;2022-12-10T00:11:19;48.97;;;15.32;;
28431;SDS011;15664;51.302;7.744;2022-12-10T00:13:46;66.43;;;19.73;;
28431;SDS011;15664;51.302;7.744;2022-12-10T00:16:13;54.00;;;16.77;;
28431;SDS011;15664;51.302;7.744;2022-12-10T00:18:40;56.50;;;16.38;;
28431;SDS011;15664;51.302;7.744;2022-12-10T00:21:06;54.50;;;18.00;;
28431;SDS011;15664;51.302;7.744;2022-12-10T00:23:34;56.47;;;16.90;;
28431;SDS011;15664;51.302;7.744;2022-12-10T00:26:04;49.00;;;16.27;;
28431;SDS011;15664;51.302;7.744;2022-12-10T00:28:37;52.00;;;16.45;;
28431;SDS011;15664;51.302;7.744;2022-12-10T00:31:03;44.63;;;15.88;;
28431;SDS011;15664;51.302;7.744;2022-12-10T00:33:36;50.17;;;17.27;;
28431;SDS011;15664;51.302;7.744;2022-12-10T00:36:04;47.70;;;15.23;;
28431;SDS011;15664;51.302;7.744;2022-12-10T00:38:30;45.75;;;15.27;;
28431;SDS011;15664;51.302;7.744;2022-12-10T00:40:56;47.37;;;15.30;;
28431;SDS011;15664;51.302;7.744;2022-12-10T00:43:21;49.37;;;16.53;;
28431;SDS011;15664;51.302;7.744;2022-12-10T00:45:46;45.37;;;15.00;;
28431;SDS011;15664;51.302;7.744;2022-12-10T00:48:12;46.57;;;16.17;;
28431;SDS011;15664;51.302;7.744;2022-12-10T00:50:37;47.72;;;15.68;;
28431;SDS011;15664;51.302;7.744;2022-12-10T00:53:02;42.07;;;14.43;;
28431;SDS011;15664;51.302;7.744;2022-12-10T00:55:28;49.63;;;15.77;;
28431;SDS011;15664;51.302;7.744;2022-12-10T00:57:53;41.73;;;14.47;;
28431;SDS011;15664;51.302;7.744;2022-12-10T01:00:19;42.13;;;14.73;;
28431;SDS011;15664;51.302;7.744;2022-12-10T01:02:44;40.67;;;13.73;;
28431;SDS011;15664;51.302;7.744;2022-12-10T01:05:09;40.30;;;14.70;;
28431;SDS011;15664;51.302;7.744;2022-12-10T01:07:34;32.03;;;12.90;;
28431;SDS011;15664;51.302;7.744;2022-12-10T01:10:00;38.87;;;12.87;;
28431;SDS011;15664;51.302;7.744;2022-12-10T01:12:25;41.03;;;13.70;;
28431;SDS011;15664;51.302;7.744;2022-12-10T01:14:50;39.40;;;12.80;;
28431;SDS011;15664;51.302;7.744;2022-12-10T01:17:16;35.03;;;12.30;;
28431;SDS011;15664;51.302;7.744;2022-12-10T01:19:43;31.88;;;10.68;;
28431;SDS011;15664;51.302;7.744;2022-12-10T01:22:08;35.70;;;11.20;;
28431;SDS011;15664;51.302;7.744;2022-12-10T01:24:35;31.73;;;11.60;;
28431;SDS011;15664;51.302;7.744;2022-12-10T01:27:00;30.48;;;11.68;;
28431;SDS011;15664;51.302;7.744;2022-12-10T01:29:26;26.73;;;10.30;;
28431;SDS011;15664;51.302;7.744;2022-12-10T01:31:53;36.00;;;12.35;;
28431;SDS011;15664;51.302;7.744;2022-12-10T01:34:20;36.67;;;12.50;;
28431;SDS011;15664;51.302;7.744;2022-12-10T01:36:48;41.90;;;12.48;;
28431;SDS011;15664;51.302;7.744;2022-12-10T01:39:16;32.00;;;11.10;;
28431;SDS011;15664;51.302;7.744;2022-12-10T01:41:44;40.20;;;13.45;;
28431;SDS011;15664;51.302;7.744;2022-12-10T01:46:38;34.37;;;12.67;;
28431;SDS011;15664;51.302;7.744;2022-12-10T01:49:06;34.78;;;10.65;;
28431;SDS011;15664;51.302;7.744;2022-12-10T01:51:34;33.90;;;12.03;;
28431;SDS011;15664;51.302;7.744;2022-12-10T01:54:02;40.10;;;12.10;;
28431;SDS011;15664;51.302;7.744;2022-12-10T01:56:31;35.83;;;11.60;;
28431;SDS011;15664;51.302;7.744;2022-12-10T01:59:03;32.78;;;10.77;;
28431;SDS011;15664;51.302;7.744;2022-12-10T02:04:14;38.22;;;11.85;;
28431;SDS011;15664;51.302;7.744;2022-12-10T02:06:45;35.65;;;10.98;;
28431;SDS011;15664;51.302;7.744;2022-12-10T02:09:34;39.45;;;13.30;;
28431;SDS011;15664;51.302;7.744;2022-12-10T02:12:10;45.30;;;14.40;;
28431;SDS011;15664;51.302;7.744;2022-12-10T02:17:24;37.17;;;13.43;;
28431;SDS011;15664;51.302;7.744;2022-12-10T02:20:00;38.10;;;13.38;;
28431;SDS011;15664;51.302;7.744;2022-12-10T02:22:33;42.47;;;14.37;;
28431;SDS011;15664;51.302;7.744;2022-12-10T02:25:04;39.45;;;13.75;;
28431;SDS011;15664;51.302;7.744;2022-12-10T02:27:37;42.55;;;14.13;;
28431;SDS011;15664;51.302;7.744;2022-12-10T02:30:08;38.90;;;13.45;;
28431;SDS011;15664;51.302;7.744;2022-12-10T02:32:35;37.13;;;12.50;;
28431;SDS011;15664;51.302;7.744;2022-12-10T02:35:26;41.05;;;12.55;;
28431;SDS011;15664;51.302;7.744;2022-12-10T02:38:39;39.03;;;12.85;;
28431;SDS011;15664;51.302;7.744;2022-12-10T02:40:53;39.97;;;12.43;;
28431;SDS011;15664;51.302;7.744;2022-12-10T02:43:23;37.85;;;12.07;;
28431;SDS011;15664;51.302;7.744;2022-12-10T02:45:52;34.00;;;11.68;;
28431;SDS011;15664;51.302;7.744;2022-12-10T02:48:20;33.50;;;12.07;;
28431;SDS011;15664;51.302;7.744;2022-12-10T02:50:47;36.13;;;11.60;;
28431;SDS011;15664;51.302;7.744;2022-12-10T02:53:12;31.93;;;10.87;;
28431;SDS011;15664;51.302;7.744;2022-12-10T02:55:42;28.17;;;9.33;;
28431;SDS011;15664;51.302;7.744;2022-12-10T02:58:41;24.52;;;8.50;;
28431;SDS011;15664;51.302;7.744;2022-12-10T03:02:05;23.30;;;7.93;;
28431;SDS011;15664;51.302;7.744;2022-12-10T03:07:18;20.73;;;7.10;;
28431;SDS011;15664;51.302;7.744;2022-12-10T03:09:57;21.88;;;8.32;;
28431;SDS011;15664;51.302;7.744;2022-12-10T03:12:31;21.80;;;6.65;;
28431;SDS011;15664;51.302;7.744;2022-12-10T03:15:04;20.58;;;7.28;;
28431;SDS011;15664;51.302;7.744;2022-12-10T03:17:33;25.20;;;8.27;;
28431;SDS011;15664;51.302;7.744;2022-12-10T03:20:01;25.38;;;8.63;;
28431;SDS011;15664;51.302;7.744;2022-12-10T03:22:28;21.52;;;7.38;;
28431;SDS011;15664;51.302;7.744;2022-12-10T03:24:55;18.50;;;6.53;;
28431;SDS011;15664;51.302;7.744;2022-12-10T03:27:22;20.67;;;7.78;;
28431;SDS011;15664;51.302;7.744;2022-12-10T03:29:50;25.25;;;8.32;;
28431;SDS011;15664;51.302;7.744;2022-12-10T03:32:16;22.55;;;8.18;;
28431;SDS011;15664;51.302;7.744;2022-12-10T03:34:44;19.95;;;8.18;;
28431;SDS011;15664;51.302;7.744;2022-12-10T03:37:10;21.30;;;8.10;;
28431;SDS011;15664;51.302;7.744;2022-12-10T03:39:38;22.38;;;7.32;;
28431;SDS011;15664;51.302;7.744;2022-12-10T03:42:05;19.85;;;6.97;;
28431;SDS011;15664;51.302;7.744;2022-12-10T03:44:32;23.50;;;7.53;;
28431;SDS011;15664;51.302;7.744;2022-12-10T03:46:59;19.50;;;6.32;;
28431;SDS011;15664;51.302;7.744;2022-12-10T03:49:25;19.42;;;6.25;;
28431;SDS011;15664;51.302;7.744;2022-12-10T03:51:50;22.73;;;7.77;;
28431;SDS011;15664;51.302;7.744;2022-12-10T03:54:16;19.40;;;6.43;;
28431;SDS011;15664;51.302;7.744;2022-12-10T03:56:41;21.65;;;7.32;;
28431;SDS011;15664;51.302;7.744;2022-12-10T03:59:07;18.92;;;6.50;;
28431;SDS011;15664;51.302;7.744;2022-12-10T04:01:32;18.07;;;5.47;;
28431;SDS011;15664;51.302;7.744;2022-12-10T04:03:57;20.83;;;7.53;;
28431;SDS011;15664;51.302;7.744;2022-12-10T04:06:23;25.63;;;7.40;;
28431;SDS011;15664;51.302;7.744;2022-12-10T04:08:48;24.80;;;7.73;;
28431;SDS011;15664;51.302;7.744;2022-12-10T04:11:14;22.00;;;7.22;;
28431;SDS011;15664;51.302;7.744;2022-12-10T04:13:41;21.27;;;7.80;;
28431;SDS011;15664;51.302;7.744;2022-12-10T04:16:25;21.73;;;6.97;;
28431;SDS011;15664;51.302;7.744;2022-12-10T04:18:51;23.40;;;7.17;;
28431;SDS011;15664;51.302;7.744;2022-12-10T04:21:17;18.88;;;7.28;;
28431;SDS011;15664;51.302;7.744;2022-12-10T04:24:01;26.38;;;8.73;;
28431;SDS011;15664;51.302;7.744;2022-12-10T04:26:45;16.92;;;6.28;;
28431;SDS011;15664;51.302;7.744;2022-12-10T04:29:23;26.83;;;8.27;;
28431;SDS011;15664;51.302;7.744;2022-12-10T04:31:51;22.67;;;6.80;;
28431;SDS011;15664;51.302;7.744;2022-12-10T04:34:17;23.13;;;8.02;;
28431;SDS011;15664;51.302;7.744;2022-12-10T04:36:42;18.17;;;5.87;;
28431;SDS011;15664;51.302;7.744;2022-12-10T04:39:08;22.97;;;7.13;;
28431;SDS011;15664;51.302;7.744;2022-12-10T04:41:33;16.60;;;5.73;;
28431;SDS011;15664;51.302;7.744;2022-12-10T04:43:58;18.23;;;6.13;;
28431;SDS011;15664;51.302;7.744;2022-12-10T04:46:24;18.97;;;6.40;;
28431;SDS011;15664;51.302;7.744;2022-12-10T04:48:49;20.80;;;7.27;;
28431;SDS011;15664;51.302;7.744;2022-12-10T04:51:14;21.33;;;6.10;;
28431;SDS011;15664;51.302;7.744;2022-12-10T04:53:39;21.93;;;6.93;;
28431;SDS011;15664;51.302;7.744;2022-12-10T04:56:05;21.58;;;7.43;;
28431;SDS011;15664;51.302;7.744;2022-12-10T04:58:31;27.27;;;7.17;;
28431;SDS011;15664;51.302;7.744;2022-12-10T05:01:04;21.23;;;7.35;;
28431;SDS011;15664;51.302;7.744;2022-12-10T05:03:30;21.33;;;6.93;;
28431;SDS011;15664;51.302;7.744;2022-12-10T05:06:00;20.33;;;8.17;;
28431;SDS011;15664;51.302;7.744;2022-12-10T05:08:27;38.15;;;11.48;;
28431;SDS011;15664;51.302;7.744;2022-12-10T05:10:52;25.90;;;9.80;;
28431;SDS011;15664;51.302;7.744;2022-12-10T05:13:18;32.80;;;10.95;;
28431;SDS011;15664;51.302;7.744;2022-12-10T05:15:44;22.10;;;7.90;;
28431;SDS011;15664;51.302;7.744;2022-12-10T05:18:09;23.17;;;7.47;;
28431;SDS011;15664;51.302;7.744;2022-12-10T05:20:34;27.70;;;8.87;;
28431;SDS011;15664;51.302;7.744;2022-12-10T05:22:59;21.70;;;6.37;;
28431;SDS011;15664;51.302;7.744;2022-12-10T05:25:43;21.10;;;6.05;;
28431;SDS011;15664;51.302;7.744;2022-12-10T05:28:20;21.37;;;7.17;;
28431;SDS011;15664;51.302;7.744;2022-12-10T05:30:46;17.52;;;6.03;;
28431;SDS011;15664;51.302;7.744;2022-12-10T05:33:12;25.60;;;7.35;;
28431;SDS011;15664;51.302;7.744;2022-12-10T05:35:38;23.03;;;6.97;;
28431;SDS011;15664;51.302;7.744;2022-12-10T05:38:03;25.57;;;8.40;;
28431;SDS011;15664;51.302;7.744;2022-12-10T05:40:30;25.92;;;8.05;;
28431;SDS011;15664;51.302;7.744;2022-12-10T05:42:55;22.97;;;8.07;;
28431;SDS011;15664;51.302;7.744;2022-12-10T05:45:21;23.50;;;8.13;;
28431;SDS011;15664;51.302;7.744;2022-12-10T05:47:46;24.43;;;8.50;;
28431;SDS011;15664;51.302;7.744;2022-12-10T05:50:12;24.07;;;8.00;;
28431;SDS011;15664;51.302;7.744;2022-12-10T05:52:37;26.47;;;8.13;;
28431;SDS011;15664;51.302;7.744;2022-12-10T05:55:02;28.57;;;10.93;;
28431;SDS011;15664;51.302;7.744;2022-12-10T05:57:28;26.07;;;9.50;;
28431;SDS011;15664;51.302;7.744;2022-12-10T05:59:53;22.50;;;7.60;;
28431;SDS011;15664;51.302;7.744;2022-12-10T06:02:18;21.67;;;7.13;;
28431;SDS011;15664;51.302;7.744;2022-12-10T06:04:44;22.87;;;7.43;;
28431;SDS011;15664;51.302;7.744;2022-12-10T06:07:09;23.63;;;7.93;;
28431;SDS011;15664;51.302;7.744;2022-12-10T06:09:34;22.73;;;7.73;;
28431;SDS011;15664;51.302;7.744;2022-12-10T06:12:00;19.13;;;7.40;;
28431;SDS011;15664;51.302;7.744;2022-12-10T06:14:25;18.73;;;6.87;;
28431;SDS011;15664;51.302;7.744;2022-12-10T06:16:50;16.03;;;5.13;;
28431;SDS011;15664;51.302;7.744;2022-12-10T06:19:15;21.00;;;6.38;;
28431;SDS011;15664;51.302;7.744;2022-12-10T06:21:41;14.73;;;5.65;;
28431;SDS011;15664;51.302;7.744;2022-12-10T06:24:06;22.58;;;7.32;;
28431;SDS011;15664;51.302;7.744;2022-12-10T06:26:32;21.75;;;7.00;;
28431;SDS011;15664;51.302;7.744;2022-12-10T06:28:57;23.60;;;7.77;;
28431;SDS011;15664;51.302;7.744;2022-12-10T06:31:23;19.50;;;6.80;;
28431;SDS011;15664;51.302;7.744;2022-12-10T06:33:48;20.08;;;6.85;;
28431;SDS011;15664;51.302;7.744;2022-12-10T06:36:14;19.57;;;6.57;;
28431;SDS011;15664;51.302;7.744;2022-12-10T06:38:41;21.52;;;7.22;;
28431;SDS011;15664;51.302;7.744;2022-12-10T06:41:07;23.30;;;8.33;;
28431;SDS011;15664;51.302;7.744;2022-12-10T06:43:33;24.70;;;7.45;;
28431;SDS011;15664;51.302;7.744;2022-12-10T06:46:03;25.83;;;7.77;;
28431;SDS011;15664;51.302;7.744;2022-12-10T06:48:30;25.90;;;8.43;;
28431;SDS011;15664;51.302;7.744;2022-12-10T06:50:55;25.40;;;9.40;;
28431;SDS011;15664;51.302;7.744;2022-12-10T06:53:20;25.30;;;8.30;;
28431;SDS011;15664;51.302;7.744;2022-12-10T06:55:46;24.40;;;9.03;;
28431;SDS011;15664;51.302;7.744;2022-12-10T06:58:11;27.73;;;9.17;;
28431;SDS011;15664;51.302;7.744;2022-12-10T07:00:36;23.57;;;7.83;;
28431;SDS011;15664;51.302;7.744;2022-12-10T07:03:01;21.00;;;7.30;;
28431;SDS011;15664;51.302;7.744;2022-12-10T07:05:27;19.30;;;6.53;;
28431;SDS011;15664;51.302;7.744;2022-12-10T07:07:52;18.30;;;6.23;;
28431;SDS011;15664;51.302;7.744;2022-12-10T07:10:17;16.80;;;5.90;;
28431;SDS011;15664;51.302;7.744;2022-12-10T07:12:43;20.60;;;7.40;;
28431;SDS011;15664;51.302;7.744;2022-12-10T07:15:08;22.38;;;7.22;;
28431;SDS011;15664;51.302;7.744;2022-12-10T07:17:34;20.33;;;6.45;;
28431;SDS011;15664;51.302;7.744;2022-12-10T07:19:59;18.37;;;6.20;;
28431;SDS011;15664;51.302;7.744;2022-12-10T07:22:24;18.03;;;6.90;;
28431;SDS011;15664;51.302;7.744;2022-12-10T07:24:50;21.47;;;6.83;;
28431;SDS011;15664;51.302;7.744;2022-12-10T07:27:15;26.00;;;8.17;;
28431;SDS011;15664;51.302;7.744;2022-12-10T07:29:41;24.10;;;8.70;;
28431;SDS011;15664;51.302;7.744;2022-12-10T07:32:06;27.13;;;7.90;;
28431;SDS011;15664;51.302;7.744;2022-12-10T07:34:31;22.83;;;6.97;;
28431;SDS011;15664;51.302;7.744;2022-12-10T07:36:56;22.67;;;7.33;;
28431;SDS011;15664;51.302;7.744;2022-12-10T07:39:22;25.73;;;7.40;;
28431;SDS011;15664;51.302;7.744;2022-12-10T07:41:48;23.33;;;7.30;;
28431;SDS011;15664;51.302;7.744;2022-12-10T07:44:17;25.00;;;8.17;;
28431;SDS011;15664;51.302;7.744;2022-12-10T07:46:46;23.63;;;8.77;;
28431;SDS011;15664;51.302;7.744;2022-12-10T07:49:12;25.20;;;8.55;;
28431;SDS011;15664;51.302;7.744;2022-12-10T07:51:37;25.07;;;7.33;;
28431;SDS011;15664;51.302;7.744;2022-12-10T07:54:03;22.30;;;8.00;;
28431;SDS011;15664;51.302;7.744;2022-12-10T07:56:28;28.97;;;11.77;;
28431;SDS011;15664;51.302;7.744;2022-12-10T07:58:53;36.10;;;14.60;;
28431;SDS011;15664;51.302;7.744;2022-12-10T08:01:20;24.05;;;8.63;;
28431;SDS011;15664;51.302;7.744;2022-12-10T08:03:50;29.20;;;9.13;;
28431;SDS011;15664;51.302;7.744;2022-12-10T08:06:17;24.48;;;9.07;;
28431;SDS011;15664;51.302;7.744;2022-12-10T08:08:44;28.05;;;10.75;;
28431;SDS011;15664;51.302;7.744;2022-12-10T08:11:11;28.20;;;10.23;;
28431;SDS011;15664;51.302;7.744;2022-12-10T08:13:37;24.83;;;8.23;;
28431;SDS011;15664;51.302;7.744;2022-12-10T08:16:04;23.23;;;7.80;;
28431;SDS011;15664;51.302;7.744;2022-12-10T08:18:35;23.70;;;7.50;;
28431;SDS011;15664;51.302;7.744;2022-12-10T08:21:04;18.77;;;6.85;;
28431;SDS011;15664;51.302;7.744;2022-12-10T08:23:31;18.42;;;7.07;;
28431;SDS011;15664;51.302;7.744;2022-12-10T08:25:56;27.00;;;8.80;;
28431;SDS011;15664;51.302;7.744;2022-12-10T08:28:21;24.57;;;8.70;;
28431;SDS011;15664;51.302;7.744;2022-12-10T08:30:47;31.70;;;9.73;;
28431;SDS011;15664;51.302;7.744;2022-12-10T08:33:13;28.75;;;10.90;;
28431;SDS011;15664;51.302;7.744;2022-12-10T08:35:38;31.70;;;10.37;;
28431;SDS011;15664;51.302;7.744;2022-12-10T08:38:03;30.27;;;9.77;;
28431;SDS011;15664;51.302;7.744;2022-12-10T08:40:29;27.87;;;10.17;;
28431;SDS011;15664;51.302;7.744;2022-12-10T08:42:54;30.03;;;10.90;;
28431;SDS011;15664;51.302;7.744;2022-12-10T08:45:19;36.20;;;13.13;;
28431;SDS011;15664;51.302;7.744;2022-12-10T08:47:45;38.90;;;12.33;;
28431;SDS011;15664;51.302;7.744;2022-12-10T08:50:10;33.87;;;10.23;;
28431;SDS011;15664;51.302;7.744;2022-12-10T08:52:35;30.47;;;9.23;;
28431;SDS011;15664;51.302;7.744;2022-12-10T08:55:00;29.40;;;9.37;;
28431;SDS011;15664;51.302;7.744;2022-12-10T08:57:26;26.37;;;8.20;;
28431;SDS011;15664;51.302;7.744;2022-12-10T08:59:51;29.00;;;8.50;;
28431;SDS011;15664;51.302;7.744;2022-12-10T09:02:16;23.70;;;8.07;;
28431;SDS011;15664;51.302;7.744;2022-12-10T09:04:42;19.33;;;7.73;;
28431;SDS011;15664;51.302;7.744;2022-12-10T09:07:07;27.05;;;8.65;;
28431;SDS011;15664;51.302;7.744;2022-12-10T09:09:33;20.90;;;7.00;;
28431;SDS011;15664;51.302;7.744;2022-12-10T09:11:58;21.43;;;6.80;;
28431;SDS011;15664;51.302;7.744;2022-12-10T09:14:25;24.65;;;7.80;;
28431;SDS011;15664;51.302;7.744;2022-12-10T09:16:50;18.37;;;7.30;;
28431;SDS011;15664;51.302;7.744;2022-12-10T09:19:15;23.97;;;8.10;;
28431;SDS011;15664;51.302;7.744;2022-12-10T09:21:41;19.57;;;6.53;;
28431;SDS011;15664;51.302;7.744;2022-12-10T09:24:08;25.63;;;9.00;;
28431;SDS011;15664;51.302;7.744;2022-12-10T09:26:34;27.08;;;8.95;;
28431;SDS011;15664;51.302;7.744;2022-12-10T09:28:59;29.27;;;10.47;;
28431;SDS011;15664;51.302;7.744;2022-12-10T09:31:25;23.45;;;8.57;;
28431;SDS011;15664;51.302;7.744;2022-12-10T09:33:52;22.83;;;7.87;;
28431;SDS011;15664;51.302;7.744;2022-12-10T09:36:18;27.60;;;9.07;;
28431;SDS011;15664;51.302;7.744;2022-12-10T09:38:45;26.85;;;8.05;;
28431;SDS011;15664;51.302;7.744;2022-12-10T09:47:06;18.58;;;7.18;;
28431;SDS011;15664;51.302;7.744;2022-12-10T09:52:11;29.75;;;9.73;;
28431;SDS011;15664;51.302;7.744;2022-12-10T09:54:55;25.87;;;8.90;;
28431;SDS011;15664;51.302;7.744;2022-12-10T09:57:28;32.60;;;9.93;;
28431;SDS011;15664;51.302;7.744;2022-12-10T09:59:58;26.60;;;8.95;;
28431;SDS011;15664;51.302;7.744;2022-12-10T10:02:36;28.25;;;10.20;;
28431;SDS011;15664;51.302;7.744;2022-12-10T10:07:31;28.48;;;9.07;;
28431;SDS011;15664;51.302;7.744;2022-12-10T10:10:11;25.00;;;8.93;;
28431;SDS011;15664;51.302;7.744;2022-12-10T10:12:46;29.92;;;10.68;;
28431;SDS011;15664;51.302;7.744;2022-12-10T10:15:14;25.65;;;9.20;;
28431;SDS011;15664;51.302;7.744;2022-12-10T10:17:42;27.25;;;9.43;;
28431;SDS011;15664;51.302;7.744;2022-12-10T10:20:12;31.90;;;10.27;;
28431;SDS011;15664;51.302;7.744;2022-12-10T10:22:41;28.83;;;9.32;;
28431;SDS011;15664;51.302;7.744;2022-12-10T10:25:12;28.50;;;9.17;;
28431;SDS011;15664;51.302;7.744;2022-12-10T10:27:40;23.45;;;8.15;;
28431;SDS011;15664;51.302;7.744;2022-12-10T10:30:06;29.10;;;10.70;;
28431;SDS011;15664;51.302;7.744;2022-12-10T10:35:03;27.30;;;9.80;;
28431;SDS011;15664;51.302;7.744;2022-12-10T10:37:30;26.63;;;9.43;;
28431;SDS011;15664;51.302;7.744;2022-12-10T10:40:04;22.75;;;8.35;;
28431;SDS011;15664;51.302;7.744;2022-12-10T10:42:36;25.83;;;9.13;;
28431;SDS011;15664;51.302;7.744;2022-12-10T10:45:05;27.55;;;9.65;;
28431;SDS011;15664;51.302;7.744;2022-12-10T10:47:53;23.73;;;7.75;;
28431;SDS011;15664;51.302;7.744;2022-12-10T10:50:29;26.58;;;9.60;;
28431;SDS011;15664;51.302;7.744;2022-12-10T10:52:54;30.85;;;9.15;;
28431;SDS011;15664;51.302;7.744;2022-12-10T10:55:32;27.40;;;8.33;;
28431;SDS011;15664;51.302;7.744;2022-12-10T10:58:00;27.03;;;8.20;;
28431;SDS011;15664;51.302;7.744;2022-12-10T11:00:26;22.08;;;8.15;;
28431;SDS011;15664;51.302;7.744;2022-12-10T11:02:51;35.47;;;10.10;;
28431;SDS011;15664;51.302;7.744;2022-12-10T11:07:49;27.00;;;9.93;;
28431;SDS011;15664;51.302;7.744;2022-12-10T11:10:23;21.90;;;8.30;;
28431;SDS011;15664;51.302;7.744;2022-12-10T11:12:57;31.33;;;8.90;;
28431;SDS011;15664;51.302;7.744;2022-12-10T11:15:38;25.05;;;7.88;;
28431;SDS011;15664;51.302;7.744;2022-12-10T11:18:25;27.80;;;9.07;;
28431;SDS011;15664;51.302;7.744;2022-12-10T11:23:59;30.60;;;9.55;;
28431;SDS011;15664;51.302;7.744;2022-12-10T11:38:02;31.40;;;10.70;;
28431;SDS011;15664;51.302;7.744;2022-12-10T11:46:38;24.80;;;8.90;;
28431;SDS011;15664;51.302;7.744;2022-12-10T11:54:44;13.90;;;5.43;;
28431;SDS011;15664;51.302;7.744;2022-12-10T11:57:23;24.53;;;7.17;;
28431;SDS011;15664;51.302;7.744;2022-12-10T12:00:17;17.67;;;5.38;;
28431;SDS011;15664;51.302;7.744;2022-12-10T12:05:31;28.58;;;9.13;;
28431;SDS011;15664;51.302;7.744;2022-12-10T12:08:26;24.80;;;9.07;;
28431;SDS011;15664;51.302;7.744;2022-12-10T12:11:06;29.00;;;9.35;;
28431;SDS011;15664;51.302;7.744;2022-12-10T12:14:19;20.88;;;7.22;;
28431;SDS011;15664;51.302;7.744;2022-12-10T12:16:36;23.10;;;8.68;;
28431;SDS011;15664;51.302;7.744;2022-12-10T12:19:13;25.20;;;9.33;;
28431;SDS011;15664;51.302;7.744;2022-12-10T12:21:42;23.13;;;8.52;;
28431;SDS011;15664;51.302;7.744;2022-12-10T12:24:15;24.17;;;7.65;;
28431;SDS011;15664;51.302;7.744;2022-12-10T12:27:05;23.80;;;8.02;;
28431;SDS011;15664;51.302;7.744;2022-12-10T12:29:47;18.27;;;6.67;;
28431;SDS011;15664;51.302;7.744;2022-12-10T12:32:25;26.58;;;9.20;;
28431;SDS011;15664;51.302;7.744;2022-12-10T12:37:52;20.50;;;8.02;;
28431;SDS011;15664;51.302;7.744;2022-12-10T12:40:29;22.97;;;7.13;;
28431;SDS011;15664;51.302;7.744;2022-12-10T12:43:03;20.63;;;7.72;;
28431;SDS011;15664;51.302;7.744;2022-12-10T12:45:40;20.88;;;8.05;;
28431;SDS011;15664;51.302;7.744;2022-12-10T12:48:23;26.92;;;7.60;;
28431;SDS011;15664;51.302;7.744;2022-12-10T12:53:34;24.15;;;8.20;;
28431;SDS011;15664;51.302;7.744;2022-12-10T12:58:47;29.35;;;8.45;;
28431;SDS011;15664;51.302;7.744;2022-12-10T13:01:32;21.57;;;6.97;;
28431;SDS011;15664;51.302;7.744;2022-12-10T13:04:03;22.88;;;7.40;;
28431;SDS011;15664;51.302;7.744;2022-12-10T13:06:32;23.35;;;7.55;;
28431;SDS011;15664;51.302;7.744;2022-12-10T13:14:29;21.60;;;8.07;;
28431;SDS011;15664;51.302;7.744;2022-12-10T13:17:31;28.58;;;8.68;;
28431;SDS011;15664;51.302;7.744;2022-12-10T13:22:54;19.40;;;6.03;;
28431;SDS011;15664;51.302;7.744;2022-12-10T13:25:41;25.97;;;8.10;;
28431;SDS011;15664;51.302;7.744;2022-12-10T13:41:31;21.23;;;8.43;;
28431;SDS011;15664;51.302;7.744;2022-12-10T13:49:30;26.92;;;8.80;;
28431;SDS011;15664;51.302;7.744;2022-12-10T13:52:15;27.33;;;10.17;;
28431;SDS011;15664;51.302;7.744;2022-12-10T13:55:02;22.80;;;7.35;;
28431;SDS011;15664;51.302;7.744;2022-12-10T13:57:48;24.63;;;8.48;;
28431;SDS011;15664;51.302;7.744;2022-12-10T14:00:22;28.63;;;9.77;;
28431;SDS011;15664;51.302;7.744;2022-12-10T14:05:48;26.37;;;9.03;;
28431;SDS011;15664;51.302;7.744;2022-12-10T14:08:26;23.45;;;8.82;;
28431;SDS011;15664;51.302;7.744;2022-12-10T14:10:55;26.70;;;8.88;;
28431;SDS011;15664;51.302;7.744;2022-12-10T14:13:24;22.10;;;7.57;;
28431;SDS011;15664;51.302;7.744;2022-12-10T14:15:59;21.35;;;7.55;;
28431;SDS011;15664;51.302;7.744;2022-12-10T14:18:27;22.80;;;7.70;;
28431;SDS011;15664;51.302;7.744;2022-12-10T14:20:55;24.45;;;8.88;;
28431;SDS011;15664;51.302;7.744;2022-12-10T14:23:25;22.52;;;7.88;;
28431;SDS011;15664;51.302;7.744;2022-12-10T14:26:21;25.97;;;8.00;;
28431;SDS011;15664;51.302;7.744;2022-12-10T14:28:56;20.63;;;8.40;;
28431;SDS011;15664;51.302;7.744;2022-12-10T14:31:38;22.73;;;8.15;;
28431;SDS011;15664;51.302;7.744;2022-12-10T14:34:11;22.40;;;7.32;;
28431;SDS011;15664;51.302;7.744;2022-12-10T14:36:44;24.60;;;8.80;;
28431;SDS011;15664;51.302;7.744;2022-12-10T14:39:15;20.93;;;7.83;;
28431;SDS011;15664;51.302;7.744;2022-12-10T14:41:42;24.58;;;8.63;;
28431;SDS011;15664;51.302;7.744;2022-12-10T14:44:11;22.95;;;7.47;;
28431;SDS011;15664;51.302;7.744;2022-12-10T14:46:40;27.00;;;8.13;;
28431;SDS011;15664;51.302;7.744;2022-12-10T14:49:06;25.23;;;8.50;;
28431;SDS011;15664;51.302;7.744;2022-12-10T14:51:38;20.30;;;7.38;;
28431;SDS011;15664;51.302;7.744;2022-12-10T14:54:04;24.00;;;7.78;;
28431;SDS011;15664;51.302;7.744;2022-12-10T14:56:49;21.70;;;7.47;;
28431;SDS011;15664;51.302;7.744;2022-12-10T14:59:17;21.02;;;7.78;;
28431;SDS011;15664;51.302;7.744;2022-12-10T15:01:49;20.48;;;8.20;;
28431;SDS011;15664;51.302;7.744;2022-12-10T15:04:21;29.67;;;8.88;;
28431;SDS011;15664;51.302;7.744;2022-12-10T15:06:47;19.65;;;7.15;;
28431;SDS011;15664;51.302;7.744;2022-12-10T15:09:15;23.60;;;7.90;;
28431;SDS011;15664;51.302;7.744;2022-12-10T15:11:43;24.33;;;7.93;;
28431;SDS011;15664;51.302;7.744;2022-12-10T15:14:10;25.30;;;7.57;;
28431;SDS011;15664;51.302;7.744;2022-12-10T15:16:42;25.27;;;8.30;;
28431;SDS011;15664;51.302;7.744;2022-12-10T15:19:31;23.33;;;7.63;;
28431;SDS011;15664;51.302;7.744;2022-12-10T15:22:02;24.75;;;8.23;;
28431;SDS011;15664;51.302;7.744;2022-12-10T15:24:46;27.43;;;8.30;;
28431;SDS011;15664;51.302;7.744;2022-12-10T15:27:17;23.60;;;8.38;;
28431;SDS011;15664;51.302;7.744;2022-12-10T15:29:44;27.88;;;9.15;;
28431;SDS011;15664;51.302;7.744;2022-12-10T15:32:11;28.30;;;8.50;;
28431;SDS011;15664;51.302;7.744;2022-12-10T15:34:42;26.83;;;8.87;;
28431;SDS011;15664;51.302;7.744;2022-12-10T15:37:18;23.35;;;7.82;;
28431;SDS011;15664;51.302;7.744;2022-12-10T15:39:59;21.83;;;7.75;;
28431;SDS011;15664;51.302;7.744;2022-12-10T15:42:37;25.25;;;8.38;;
28431;SDS011;15664;51.302;7.744;2022-12-10T15:45:39;26.58;;;9.30;;
28431;SDS011;15664;51.302;7.744;2022-12-10T15:48:07;23.67;;;8.27;;
28431;SDS011;15664;51.302;7.744;2022-12-10T15:50:35;25.02;;;9.10;;
28431;SDS011;15664;51.302;7.744;2022-12-10T15:53:01;23.70;;;7.85;;
28431;SDS011;15664;51.302;7.744;2022-12-10T15:55:26;24.90;;;7.93;;
28431;SDS011;15664;51.302;7.744;2022-12-10T15:57:52;23.20;;;7.77;;
28431;SDS011;15664;51.302;7.744;2022-12-10T16:00:19;26.77;;;9.33;;
28431;SDS011;15664;51.302;7.744;2022-12-10T16:05:15;32.58;;;10.18;;
28431;SDS011;15664;51.302;7.744;2022-12-10T16:07:43;26.25;;;8.98;;
28431;SDS011;15664;51.302;7.744;2022-12-10T16:10:10;28.95;;;9.48;;
28431;SDS011;15664;51.302;7.744;2022-12-10T16:12:36;30.90;;;9.88;;
28431;SDS011;15664;51.302;7.744;2022-12-10T16:15:02;30.93;;;9.27;;
28431;SDS011;15664;51.302;7.744;2022-12-10T16:17:29;23.95;;;8.93;;
28431;SDS011;15664;51.302;7.744;2022-12-10T16:20:17;30.38;;;9.93;;
28431;SDS011;15664;51.302;7.744;2022-12-10T16:22:45;31.20;;;10.13;;